sensor_id;sensor_type;location;lat;lon;timestamp;P1;durP1;ratioP1;P2;durP2;ratioP2
11269;SDS011;5692;48.956;9.200;2023-04-24T00:01:52;156.13;;;148.67;;
11269;SDS011;5692;48.956;9.200;2023-04-24T00:04:18;164.03;;;156.13;;
11269;SDS011;5692;48.956;9.200;2023-04-24T00:06:44;150.40;;;143.20;;
11269;SDS011;5692;48.956;9.200;2023-04-24T00:09:14;157.02;;;149.52;;
11269;SDS011;5692;48.956;9.200;2023-04-24T00:11:40;159.63;;;151.98;;
11269;SDS011;5692;48.956;9.200;2023-04-24T00:14:06;159.60;;;151.95;;
11269;SDS011;5692;48.956;9.200;2023-04-24T00:16:32;167.63;;;159.60;;
11269;SDS011;5692;48.956;9.200;2023-04-24T00:18:58;163.10;;;155.27;;
11269;SDS011;5692;48.956;9.200;2023-04-24T00:21:25;154.90;;;147.48;;
11269;SDS011;5692;48.956;9.200;2023-04-24T00:23:52;158.18;;;150.60;;
11269;SDS011;5692;48.956;9.200;2023-04-24T00:26:18;154.02;;;146.65;;
11269;SDS011;5692;48.956;9.200;2023-04-24T00:28:47;167.07;;;159.07;;
11269;SDS011;5692;48.956;9.200;2023-04-24T00:31:13;163.50;;;155.70;;
11269;SDS011;5692;48.956;9.200;2023-04-24T00:33:39;164.90;;;157.00;;
11269;SDS011;5692;48.956;9.200;2023-04-24T00:36:05;161.43;;;153.70;;
11269;SDS011;5692;48.956;9.200;2023-04-24T00:38:31;159.02;;;151.43;;
11269;SDS011;5692;48.956;9.200;2023-04-24T00:40:57;160.75;;;153.05;;
11269;SDS011;5692;48.956;9.200;2023-04-24T00:43:24;162.40;;;154.63;;
11269;SDS011;5692;48.956;9.200;2023-04-24T00:45:50;158.95;;;151.35;;
11269;SDS011;5692;48.956;9.200;2023-04-24T00:48:19;156.98;;;149.48;;
11269;SDS011;5692;48.956;9.200;2023-04-24T00:50:46;171.18;;;162.98;;
11269;SDS011;5692;48.956;9.200;2023-04-24T00:53:12;162.38;;;154.60;;
11269;SDS011;5692;48.956;9.200;2023-04-24T00:55:38;162.13;;;154.35;;
11269;SDS011;5692;48.956;9.200;2023-04-24T00:58:04;164.90;;;157.00;;
11269;SDS011;5692;48.956;9.200;2023-04-24T01:00:30;163.18;;;155.38;;
11269;SDS011;5692;48.956;9.200;2023-04-24T01:02:57;165.73;;;157.80;;
11269;SDS011;5692;48.956;9.200;2023-04-24T01:05:24;150.63;;;143.43;;
11269;SDS011;5692;48.956;9.200;2023-04-24T01:07:51;157.48;;;149.93;;
11269;SDS011;5692;48.956;9.200;2023-04-24T01:10:17;154.25;;;146.85;;
11269;SDS011;5692;48.956;9.200;2023-04-24T01:12:45;153.98;;;146.57;;
11269;SDS011;5692;48.956;9.200;2023-04-24T01:15:14;154.45;;;147.05;;
11269;SDS011;5692;48.956;9.200;2023-04-24T01:17:43;155.48;;;148.02;;
11269;SDS011;5692;48.956;9.200;2023-04-24T01:20:09;158.15;;;150.55;;
11269;SDS011;5692;48.956;9.200;2023-04-24T01:22:35;160.73;;;153.02;;
11269;SDS011;5692;48.956;9.200;2023-04-24T01:25:02;168.77;;;160.68;;
11269;SDS011;5692;48.956;9.200;2023-04-24T01:27:30;165.32;;;157.43;;
11269;SDS011;5692;48.956;9.200;2023-04-24T01:29:56;158.60;;;151.00;;
11269;SDS011;5692;48.956;9.200;2023-04-24T01:32:23;154.50;;;147.10;;
11269;SDS011;5692;48.956;9.200;2023-04-24T01:34:49;165.05;;;157.15;;
11269;SDS011;5692;48.956;9.200;2023-04-24T01:37:16;159.75;;;152.10;;
11269;SDS011;5692;48.956;9.200;2023-04-24T01:39:42;148.45;;;141.35;;
11269;SDS011;5692;48.956;9.200;2023-04-24T01:42:09;148.75;;;141.60;;
11269;SDS011;5692;48.956;9.200;2023-04-24T01:44:35;156.05;;;148.57;;
11269;SDS011;5692;48.956;9.200;2023-04-24T01:47:01;157.00;;;149.48;;
11269;SDS011;5692;48.956;9.200;2023-04-24T01:49:27;159.20;;;151.57;;
11269;SDS011;5692;48.956;9.200;2023-04-24T01:51:53;168.43;;;160.35;;
11269;SDS011;5692;48.956;9.200;2023-04-24T01:54:19;164.88;;;156.98;;
11269;SDS011;5692;48.956;9.200;2023-04-24T01:56:45;151.15;;;143.90;;
11269;SDS011;5692;48.956;9.200;2023-04-24T01:59:14;166.50;;;158.52;;
11269;SDS011;5692;48.956;9.200;2023-04-24T02:01:43;158.57;;;150.98;;
11269;SDS011;5692;48.956;9.200;2023-04-24T02:04:09;155.80;;;148.30;;
11269;SDS011;5692;48.956;9.200;2023-04-24T02:06:35;156.77;;;149.27;;
11269;SDS011;5692;48.956;9.200;2023-04-24T02:09:02;146.60;;;139.60;;
11269;SDS011;5692;48.956;9.200;2023-04-24T02:11:28;148.73;;;141.60;;
11269;SDS011;5692;48.956;9.200;2023-04-24T02:13:54;157.05;;;149.55;;
11269;SDS011;5692;48.956;9.200;2023-04-24T02:16:20;141.15;;;134.38;;
11269;SDS011;5692;48.956;9.200;2023-04-24T02:18:46;143.70;;;136.80;;
11269;SDS011;5692;48.956;9.200;2023-04-24T02:21:12;158.70;;;151.10;;
11269;SDS011;5692;48.956;9.200;2023-04-24T02:23:38;152.43;;;145.13;;
11269;SDS011;5692;48.956;9.200;2023-04-24T02:26:05;154.68;;;147.25;;
11269;SDS011;5692;48.956;9.200;2023-04-24T02:28:31;145.70;;;138.70;;
11269;SDS011;5692;48.956;9.200;2023-04-24T02:30:57;152.43;;;145.13;;
11269;SDS011;5692;48.956;9.200;2023-04-24T02:33:23;140.02;;;133.32;;
11269;SDS011;5692;48.956;9.200;2023-04-24T02:35:49;158.77;;;151.18;;
11269;SDS011;5692;48.956;9.200;2023-04-24T02:38:15;152.93;;;145.60;;
11269;SDS011;5692;48.956;9.200;2023-04-24T02:40:41;144.40;;;137.50;;
11269;SDS011;5692;48.956;9.200;2023-04-24T02:43:07;159.93;;;152.25;;
11269;SDS011;5692;48.956;9.200;2023-04-24T02:45:33;153.23;;;145.90;;
11269;SDS011;5692;48.956;9.200;2023-04-24T02:47:59;157.13;;;149.63;;
11269;SDS011;5692;48.956;9.200;2023-04-24T02:50:25;151.75;;;144.45;;
11269;SDS011;5692;48.956;9.200;2023-04-24T02:52:51;149.45;;;142.30;;
11269;SDS011;5692;48.956;9.200;2023-04-24T02:55:18;140.57;;;133.88;;
11269;SDS011;5692;48.956;9.200;2023-04-24T02:57:44;160.95;;;153.25;;
11269;SDS011;5692;48.956;9.200;2023-04-24T03:00:10;153.63;;;146.23;;
11269;SDS011;5692;48.956;9.200;2023-04-24T03:02:36;144.85;;;137.90;;
11269;SDS011;5692;48.956;9.200;2023-04-24T03:05:02;141.52;;;134.73;;
11269;SDS011;5692;48.956;9.200;2023-04-24T03:07:29;153.05;;;145.73;;
11269;SDS011;5692;48.956;9.200;2023-04-24T03:09:56;139.45;;;132.77;;
11269;SDS011;5692;48.956;9.200;2023-04-24T03:12:23;143.70;;;136.80;;
11269;SDS011;5692;48.956;9.200;2023-04-24T03:14:49;153.13;;;145.80;;
11269;SDS011;5692;48.956;9.200;2023-04-24T03:17:15;145.65;;;138.65;;
11269;SDS011;5692;48.956;9.200;2023-04-24T03:19:41;160.00;;;152.32;;
11269;SDS011;5692;48.956;9.200;2023-04-24T03:22:07;156.98;;;149.45;;
11269;SDS011;5692;48.956;9.200;2023-04-24T03:24:34;143.63;;;136.73;;
11269;SDS011;5692;48.956;9.200;2023-04-24T03:27:00;144.98;;;138.02;;
11269;SDS011;5692;48.956;9.200;2023-04-24T03:29:26;146.77;;;139.75;;
11269;SDS011;5692;48.956;9.200;2023-04-24T03:31:52;149.73;;;142.57;;
11269;SDS011;5692;48.956;9.200;2023-04-24T03:34:18;143.23;;;136.35;;
11269;SDS011;5692;48.956;9.200;2023-04-24T03:36:44;154.10;;;146.70;;
11269;SDS011;5692;48.956;9.200;2023-04-24T03:39:12;163.25;;;155.43;;
11269;SDS011;5692;48.956;9.200;2023-04-24T03:41:38;138.73;;;132.05;;
11269;SDS011;5692;48.956;9.200;2023-04-24T03:44:04;145.10;;;138.13;;
11269;SDS011;5692;48.956;9.200;2023-04-24T03:46:30;138.65;;;132.00;;
11269;SDS011;5692;48.956;9.200;2023-04-24T03:48:56;144.80;;;137.85;;
11269;SDS011;5692;48.956;9.200;2023-04-24T03:51:22;138.23;;;131.60;;
11269;SDS011;5692;48.956;9.200;2023-04-24T03:53:48;132.05;;;125.70;;
11269;SDS011;5692;48.956;9.200;2023-04-24T03:56:14;130.98;;;124.68;;
11269;SDS011;5692;48.956;9.200;2023-04-24T03:58:41;132.00;;;125.70;;
11269;SDS011;5692;48.956;9.200;2023-04-24T04:01:07;137.25;;;130.65;;
11269;SDS011;5692;48.956;9.200;2023-04-24T04:03:33;132.10;;;125.75;;
11269;SDS011;5692;48.956;9.200;2023-04-24T04:05:59;127.47;;;121.35;;
11269;SDS011;5692;48.956;9.200;2023-04-24T04:08:28;128.35;;;122.18;;
11269;SDS011;5692;48.956;9.200;2023-04-24T04:10:54;129.85;;;123.65;;
11269;SDS011;5692;48.956;9.200;2023-04-24T04:13:20;138.45;;;131.82;;
11269;SDS011;5692;48.956;9.200;2023-04-24T04:15:46;137.18;;;130.60;;
11269;SDS011;5692;48.956;9.200;2023-04-24T04:18:12;131.55;;;125.22;;
11269;SDS011;5692;48.956;9.200;2023-04-24T04:20:38;134.68;;;128.18;;
11269;SDS011;5692;48.956;9.200;2023-04-24T04:23:04;126.10;;;120.03;;
11269;SDS011;5692;48.956;9.200;2023-04-24T04:25:30;137.40;;;130.80;;
11269;SDS011;5692;48.956;9.200;2023-04-24T04:27:56;140.80;;;134.05;;
11269;SDS011;5692;48.956;9.200;2023-04-24T04:30:24;140.77;;;134.00;;
11269;SDS011;5692;48.956;9.200;2023-04-24T04:32:50;151.85;;;144.55;;
11269;SDS011;5692;48.956;9.200;2023-04-24T04:35:17;148.60;;;141.48;;
11269;SDS011;5692;48.956;9.200;2023-04-24T04:37:43;143.05;;;136.18;;
11269;SDS011;5692;48.956;9.200;2023-04-24T04:40:09;138.65;;;132.00;;
11269;SDS011;5692;48.956;9.200;2023-04-24T04:42:36;141.23;;;134.45;;
11269;SDS011;5692;48.956;9.200;2023-04-24T04:45:06;143.80;;;136.90;;
11269;SDS011;5692;48.956;9.200;2023-04-24T04:47:33;149.02;;;141.88;;
11269;SDS011;5692;48.956;9.200;2023-04-24T04:50:00;151.30;;;144.05;;
11269;SDS011;5692;48.956;9.200;2023-04-24T04:52:26;148.60;;;141.48;;
11269;SDS011;5692;48.956;9.200;2023-04-24T04:54:52;150.27;;;143.07;;
11269;SDS011;5692;48.956;9.200;2023-04-24T04:57:18;144.23;;;137.32;;
11269;SDS011;5692;48.956;9.200;2023-04-24T04:59:45;141.25;;;134.45;;
11269;SDS011;5692;48.956;9.200;2023-04-24T05:02:11;157.23;;;149.70;;
11269;SDS011;5692;48.956;9.200;2023-04-24T05:04:37;144.52;;;137.63;;
11269;SDS011;5692;48.956;9.200;2023-04-24T05:07:03;155.00;;;147.60;;
11269;SDS011;5692;48.956;9.200;2023-04-24T05:09:30;136.00;;;129.50;;
11269;SDS011;5692;48.956;9.200;2023-04-24T05:11:56;139.57;;;132.88;;
11269;SDS011;5692;48.956;9.200;2023-04-24T05:14:22;130.02;;;123.78;;
11269;SDS011;5692;48.956;9.200;2023-04-24T05:16:48;138.38;;;131.75;;
11269;SDS011;5692;48.956;9.200;2023-04-24T05:19:15;132.52;;;126.13;;
11269;SDS011;5692;48.956;9.200;2023-04-24T05:21:41;131.15;;;124.85;;
11269;SDS011;5692;48.956;9.200;2023-04-24T05:24:09;142.07;;;135.25;;
11269;SDS011;5692;48.956;9.200;2023-04-24T05:26:35;133.37;;;126.97;;
11269;SDS011;5692;48.956;9.200;2023-04-24T05:29:01;131.18;;;124.88;;
11269;SDS011;5692;48.956;9.200;2023-04-24T05:31:28;140.00;;;133.30;;
11269;SDS011;5692;48.956;9.200;2023-04-24T05:33:54;156.27;;;148.77;;
11269;SDS011;5692;48.956;9.200;2023-04-24T05:36:20;140.02;;;133.32;;
11269;SDS011;5692;48.956;9.200;2023-04-24T05:38:46;139.30;;;132.60;;
11269;SDS011;5692;48.956;9.200;2023-04-24T05:41:12;134.75;;;128.30;;
11269;SDS011;5692;48.956;9.200;2023-04-24T05:43:38;151.63;;;144.33;;
11269;SDS011;5692;48.956;9.200;2023-04-24T05:46:04;142.85;;;136.00;;
11269;SDS011;5692;48.956;9.200;2023-04-24T05:48:30;134.63;;;128.13;;
11269;SDS011;5692;48.956;9.200;2023-04-24T05:50:56;138.15;;;131.55;;
11269;SDS011;5692;48.956;9.200;2023-04-24T05:53:25;140.15;;;133.45;;
11269;SDS011;5692;48.956;9.200;2023-04-24T05:55:51;145.30;;;138.30;;
11269;SDS011;5692;48.956;9.200;2023-04-24T05:58:17;146.60;;;139.55;;
11269;SDS011;5692;48.956;9.200;2023-04-24T06:00:43;138.63;;;131.98;;
11269;SDS011;5692;48.956;9.200;2023-04-24T06:03:11;127.68;;;121.57;;
11269;SDS011;5692;48.956;9.200;2023-04-24T06:05:37;130.70;;;124.40;;
11269;SDS011;5692;48.956;9.200;2023-04-24T06:08:03;123.15;;;117.25;;
11269;SDS011;5692;48.956;9.200;2023-04-24T06:10:29;125.35;;;119.35;;
11269;SDS011;5692;48.956;9.200;2023-04-24T06:12:55;125.35;;;119.32;;
11269;SDS011;5692;48.956;9.200;2023-04-24T06:15:25;136.10;;;129.60;;
11269;SDS011;5692;48.956;9.200;2023-04-24T06:17:51;137.90;;;131.30;;
11269;SDS011;5692;48.956;9.200;2023-04-24T06:20:17;139.40;;;132.70;;
11269;SDS011;5692;48.956;9.200;2023-04-24T06:22:43;125.38;;;119.38;;
11269;SDS011;5692;48.956;9.200;2023-04-24T06:25:09;141.68;;;134.88;;
11269;SDS011;5692;48.956;9.200;2023-04-24T06:27:35;138.60;;;131.95;;
11269;SDS011;5692;48.956;9.200;2023-04-24T06:30:01;144.00;;;137.10;;
11269;SDS011;5692;48.956;9.200;2023-04-24T06:32:27;140.18;;;133.45;;
11269;SDS011;5692;48.956;9.200;2023-04-24T06:34:56;130.98;;;124.68;;
11269;SDS011;5692;48.956;9.200;2023-04-24T06:37:22;136.52;;;129.98;;
11269;SDS011;5692;48.956;9.200;2023-04-24T06:39:48;125.70;;;119.70;;
11269;SDS011;5692;48.956;9.200;2023-04-24T06:42:14;135.87;;;129.37;;
11269;SDS011;5692;48.956;9.200;2023-04-24T06:44:40;131.77;;;125.45;;
11269;SDS011;5692;48.956;9.200;2023-04-24T06:47:09;136.32;;;129.80;;
11269;SDS011;5692;48.956;9.200;2023-04-24T06:49:37;126.80;;;120.70;;
11269;SDS011;5692;48.956;9.200;2023-04-24T06:52:03;135.32;;;128.82;;
11269;SDS011;5692;48.956;9.200;2023-04-24T06:54:30;136.93;;;130.35;;
11269;SDS011;5692;48.956;9.200;2023-04-24T06:56:59;140.60;;;133.85;;
11269;SDS011;5692;48.956;9.200;2023-04-24T06:59:26;135.07;;;128.57;;
11269;SDS011;5692;48.956;9.200;2023-04-24T07:01:53;138.30;;;131.70;;
11269;SDS011;5692;48.956;9.200;2023-04-24T07:04:19;154.32;;;146.93;;
11269;SDS011;5692;48.956;9.200;2023-04-24T07:06:45;166.55;;;158.57;;
11269;SDS011;5692;48.956;9.200;2023-04-24T07:09:14;158.00;;;150.43;;
11269;SDS011;5692;48.956;9.200;2023-04-24T07:11:41;149.73;;;142.52;;
11269;SDS011;5692;48.956;9.200;2023-04-24T07:14:07;157.63;;;150.07;;
11269;SDS011;5692;48.956;9.200;2023-04-24T07:16:33;150.52;;;143.32;;
11269;SDS011;5692;48.956;9.200;2023-04-24T07:18:59;166.45;;;158.45;;
11269;SDS011;5692;48.956;9.200;2023-04-24T07:21:26;150.63;;;143.43;;
11269;SDS011;5692;48.956;9.200;2023-04-24T07:23:52;156.93;;;149.43;;
11269;SDS011;5692;48.956;9.200;2023-04-24T07:26:19;164.38;;;156.50;;
11269;SDS011;5692;48.956;9.200;2023-04-24T07:28:45;160.80;;;153.10;;
11269;SDS011;5692;48.956;9.200;2023-04-24T07:31:11;160.43;;;152.73;;
11269;SDS011;5692;48.956;9.200;2023-04-24T07:33:37;158.35;;;150.75;;
11269;SDS011;5692;48.956;9.200;2023-04-24T07:36:06;167.63;;;159.63;;
11269;SDS011;5692;48.956;9.200;2023-04-24T07:38:32;149.32;;;142.15;;
11269;SDS011;5692;48.956;9.200;2023-04-24T07:40:58;155.88;;;148.40;;
11269;SDS011;5692;48.956;9.200;2023-04-24T07:43:24;144.73;;;137.80;;
11269;SDS011;5692;48.956;9.200;2023-04-24T07:45:52;144.07;;;137.18;;
11269;SDS011;5692;48.956;9.200;2023-04-24T07:48:18;158.65;;;151.05;;
11269;SDS011;5692;48.956;9.200;2023-04-24T07:50:46;149.20;;;142.02;;
11269;SDS011;5692;48.956;9.200;2023-04-24T07:53:13;147.65;;;140.57;;
11269;SDS011;5692;48.956;9.200;2023-04-24T07:55:39;151.43;;;144.17;;
11269;SDS011;5692;48.956;9.200;2023-04-24T07:58:04;162.77;;;154.97;;
11269;SDS011;5692;48.956;9.200;2023-04-24T08:00:31;147.38;;;140.32;;
11269;SDS011;5692;48.956;9.200;2023-04-24T08:02:57;147.85;;;140.75;;
11269;SDS011;5692;48.956;9.200;2023-04-24T08:05:23;143.95;;;137.05;;
11269;SDS011;5692;48.956;9.200;2023-04-24T08:07:50;163.65;;;155.80;;
11269;SDS011;5692;48.956;9.200;2023-04-24T08:10:16;161.35;;;153.63;;
11269;SDS011;5692;48.956;9.200;2023-04-24T08:12:42;147.20;;;140.15;;
11269;SDS011;5692;48.956;9.200;2023-04-24T08:15:08;150.90;;;143.70;;
11269;SDS011;5692;48.956;9.200;2023-04-24T08:17:34;156.73;;;149.20;;
11269;SDS011;5692;48.956;9.200;2023-04-24T08:20:01;157.10;;;149.57;;
11269;SDS011;5692;48.956;9.200;2023-04-24T08:22:30;154.35;;;146.95;;
11269;SDS011;5692;48.956;9.200;2023-04-24T08:24:57;165.70;;;157.75;;
11269;SDS011;5692;48.956;9.200;2023-04-24T08:27:23;153.13;;;145.77;;
11269;SDS011;5692;48.956;9.200;2023-04-24T08:29:49;163.07;;;155.27;;
11269;SDS011;5692;48.956;9.200;2023-04-24T08:32:15;171.48;;;163.27;;
11269;SDS011;5692;48.956;9.200;2023-04-24T08:34:41;155.05;;;147.63;;
11269;SDS011;5692;48.956;9.200;2023-04-24T08:37:07;160.10;;;152.40;;
11269;SDS011;5692;48.956;9.200;2023-04-24T08:39:33;171.32;;;163.13;;
11269;SDS011;5692;48.956;9.200;2023-04-24T08:41:59;164.25;;;156.38;;
11269;SDS011;5692;48.956;9.200;2023-04-24T08:44:30;171.63;;;163.43;;
11269;SDS011;5692;48.956;9.200;2023-04-24T08:46:57;163.77;;;155.93;;
11269;SDS011;5692;48.956;9.200;2023-04-24T08:49:24;161.07;;;153.38;;
11269;SDS011;5692;48.956;9.200;2023-04-24T08:51:53;181.40;;;172.70;;
11269;SDS011;5692;48.956;9.200;2023-04-24T08:54:19;179.80;;;171.20;;
11269;SDS011;5692;48.956;9.200;2023-04-24T08:56:45;179.50;;;170.90;;
11269;SDS011;5692;48.956;9.200;2023-04-24T08:59:15;179.65;;;171.05;;
11269;SDS011;5692;48.956;9.200;2023-04-24T09:01:41;174.82;;;166.43;;
11269;SDS011;5692;48.956;9.200;2023-04-24T09:04:09;183.82;;;175.02;;
11269;SDS011;5692;48.956;9.200;2023-04-24T09:06:37;189.55;;;180.48;;
11269;SDS011;5692;48.956;9.200;2023-04-24T09:09:04;202.00;;;192.32;;
11269;SDS011;5692;48.956;9.200;2023-04-24T09:11:30;186.25;;;177.32;;
11269;SDS011;5692;48.956;9.200;2023-04-24T09:14:00;197.25;;;187.80;;
11269;SDS011;5692;48.956;9.200;2023-04-24T09:16:26;203.32;;;193.60;;
11269;SDS011;5692;48.956;9.200;2023-04-24T09:18:52;189.38;;;180.32;;
11269;SDS011;5692;48.956;9.200;2023-04-24T09:21:20;173.70;;;165.38;;
11269;SDS011;5692;48.956;9.200;2023-04-24T09:23:57;178.75;;;170.18;;
11269;SDS011;5692;48.956;9.200;2023-04-24T09:26:24;206.02;;;196.15;;
11269;SDS011;5692;48.956;9.200;2023-04-24T09:28:50;207.35;;;197.43;;
11269;SDS011;5692;48.956;9.200;2023-04-24T09:31:18;184.65;;;175.80;;
11269;SDS011;5692;48.956;9.200;2023-04-24T09:34:00;185.93;;;177.02;;
11269;SDS011;5692;48.956;9.200;2023-04-24T09:38:58;195.98;;;186.57;;
11269;SDS011;5692;48.956;9.200;2023-04-24T09:41:25;189.93;;;180.82;;
11269;SDS011;5692;48.956;9.200;2023-04-24T09:43:53;189.30;;;180.20;;
11269;SDS011;5692;48.956;9.200;2023-04-24T09:46:28;177.88;;;169.38;;
11269;SDS011;5692;48.956;9.200;2023-04-24T09:48:55;183.35;;;174.55;;
11269;SDS011;5692;48.956;9.200;2023-04-24T09:51:32;182.77;;;174.02;;
11269;SDS011;5692;48.956;9.200;2023-04-24T09:53:59;175.65;;;167.25;;
11269;SDS011;5692;48.956;9.200;2023-04-24T09:56:25;184.33;;;175.53;;
11269;SDS011;5692;48.956;9.200;2023-04-24T09:58:51;182.00;;;173.27;;
11269;SDS011;5692;48.956;9.200;2023-04-24T10:01:32;195.60;;;186.25;;
11269;SDS011;5692;48.956;9.200;2023-04-24T10:03:58;173.32;;;165.02;;
11269;SDS011;5692;48.956;9.200;2023-04-24T10:06:34;193.60;;;184.35;;
11269;SDS011;5692;48.956;9.200;2023-04-24T10:09:00;188.68;;;179.65;;
11269;SDS011;5692;48.956;9.200;2023-04-24T10:11:27;190.60;;;181.50;;
11269;SDS011;5692;48.956;9.200;2023-04-24T10:13:53;180.60;;;171.98;;
11269;SDS011;5692;48.956;9.200;2023-04-24T10:16:21;183.60;;;174.80;;
11269;SDS011;5692;48.956;9.200;2023-04-24T10:18:48;192.07;;;182.88;;
11269;SDS011;5692;48.956;9.200;2023-04-24T10:21:17;185.80;;;176.90;;
11269;SDS011;5692;48.956;9.200;2023-04-24T10:23:43;156.30;;;148.80;;
11269;SDS011;5692;48.956;9.200;2023-04-24T10:26:14;173.32;;;165.02;;
11269;SDS011;5692;48.956;9.200;2023-04-24T10:28:45;174.70;;;166.30;;
11269;SDS011;5692;48.956;9.200;2023-04-24T10:31:12;181.77;;;173.07;;
11269;SDS011;5692;48.956;9.200;2023-04-24T10:33:39;166.70;;;158.70;;
11269;SDS011;5692;48.956;9.200;2023-04-24T10:36:07;161.98;;;154.18;;
11269;SDS011;5692;48.956;9.200;2023-04-24T10:38:34;158.40;;;150.80;;
11269;SDS011;5692;48.956;9.200;2023-04-24T10:41:07;187.15;;;178.18;;
11269;SDS011;5692;48.956;9.200;2023-04-24T10:43:34;185.02;;;176.15;;
11269;SDS011;5692;48.956;9.200;2023-04-24T10:46:01;182.68;;;173.93;;
11269;SDS011;5692;48.956;9.200;2023-04-24T10:48:27;179.20;;;170.63;;
11269;SDS011;5692;48.956;9.200;2023-04-24T10:50:54;171.57;;;163.35;;
11269;SDS011;5692;48.956;9.200;2023-04-24T10:53:20;176.98;;;168.50;;
11269;SDS011;5692;48.956;9.200;2023-04-24T10:58:24;175.43;;;167.02;;
11269;SDS011;5692;48.956;9.200;2023-04-24T11:00:56;165.38;;;157.45;;
11269;SDS011;5692;48.956;9.200;2023-04-24T11:03:24;184.18;;;175.38;;
11269;SDS011;5692;48.956;9.200;2023-04-24T11:05:55;162.77;;;154.98;;
11269;SDS011;5692;48.956;9.200;2023-04-24T11:08:28;187.70;;;178.70;;
11269;SDS011;5692;48.956;9.200;2023-04-24T11:11:06;178.35;;;169.82;;
11269;SDS011;5692;48.956;9.200;2023-04-24T11:16:23;168.60;;;160.50;;
11269;SDS011;5692;48.956;9.200;2023-04-24T11:19:02;176.90;;;168.43;;
11269;SDS011;5692;48.956;9.200;2023-04-24T11:24:28;160.63;;;152.93;;
11269;SDS011;5692;48.956;9.200;2023-04-24T11:27:00;178.43;;;169.90;;
11269;SDS011;5692;48.956;9.200;2023-04-24T11:29:42;173.35;;;165.05;;
11269;SDS011;5692;48.956;9.200;2023-04-24T11:34:41;187.40;;;178.43;;
11269;SDS011;5692;48.956;9.200;2023-04-24T11:37:07;175.80;;;167.38;;
11269;SDS011;5692;48.956;9.200;2023-04-24T11:39:38;175.43;;;167.00;;
11269;SDS011;5692;48.956;9.200;2023-04-24T11:42:04;170.88;;;162.68;;
11269;SDS011;5692;48.956;9.200;2023-04-24T11:44:32;179.38;;;170.77;;
11269;SDS011;5692;48.956;9.200;2023-04-24T11:46:59;178.82;;;170.23;;
11269;SDS011;5692;48.956;9.200;2023-04-24T11:49:25;164.30;;;156.40;;
11269;SDS011;5692;48.956;9.200;2023-04-24T11:51:54;171.00;;;162.80;;
11269;SDS011;5692;48.956;9.200;2023-04-24T11:54:21;165.45;;;157.55;;
11269;SDS011;5692;48.956;9.200;2023-04-24T11:56:47;173.20;;;164.90;;
11269;SDS011;5692;48.956;9.200;2023-04-24T11:59:13;165.82;;;157.90;;
11269;SDS011;5692;48.956;9.200;2023-04-24T12:01:46;165.85;;;157.90;;
11269;SDS011;5692;48.956;9.200;2023-04-24T12:04:12;144.75;;;137.82;;
11269;SDS011;5692;48.956;9.200;2023-04-24T12:06:39;166.80;;;158.80;;
11269;SDS011;5692;48.956;9.200;2023-04-24T12:09:05;160.60;;;152.90;;
11269;SDS011;5692;48.956;9.200;2023-04-24T12:11:32;156.13;;;148.63;;
11269;SDS011;5692;48.956;9.200;2023-04-24T12:14:09;160.65;;;152.95;;
11269;SDS011;5692;48.956;9.200;2023-04-24T12:16:35;165.27;;;157.35;;
11269;SDS011;5692;48.956;9.200;2023-04-24T12:19:01;157.87;;;150.30;;
11269;SDS011;5692;48.956;9.200;2023-04-24T12:21:27;159.68;;;152.02;;
11269;SDS011;5692;48.956;9.200;2023-04-24T12:23:55;161.02;;;153.32;;
11269;SDS011;5692;48.956;9.200;2023-04-24T12:26:21;151.55;;;144.25;;
11269;SDS011;5692;48.956;9.200;2023-04-24T12:28:48;161.15;;;153.43;;
11269;SDS011;5692;48.956;9.200;2023-04-24T12:31:15;165.80;;;157.88;;
11269;SDS011;5692;48.956;9.200;2023-04-24T12:33:41;175.38;;;166.98;;
11269;SDS011;5692;48.956;9.200;2023-04-24T12:36:09;153.80;;;146.43;;
11269;SDS011;5692;48.956;9.200;2023-04-24T12:38:37;158.30;;;150.73;;
11269;SDS011;5692;48.956;9.200;2023-04-24T12:43:32;159.10;;;151.50;;
11269;SDS011;5692;48.956;9.200;2023-04-24T12:45:58;154.20;;;146.80;;
11269;SDS011;5692;48.956;9.200;2023-04-24T12:48:25;168.02;;;159.98;;
11269;SDS011;5692;48.956;9.200;2023-04-24T12:50:51;166.43;;;158.43;;
11269;SDS011;5692;48.956;9.200;2023-04-24T12:53:17;157.45;;;149.90;;
11269;SDS011;5692;48.956;9.200;2023-04-24T12:55:44;169.25;;;161.15;;
11269;SDS011;5692;48.956;9.200;2023-04-24T12:58:10;186.07;;;177.18;;
11269;SDS011;5692;48.956;9.200;2023-04-24T13:00:36;177.35;;;168.85;;
11269;SDS011;5692;48.956;9.200;2023-04-24T13:03:02;164.75;;;156.85;;
11269;SDS011;5692;48.956;9.200;2023-04-24T13:05:28;155.88;;;148.38;;
11269;SDS011;5692;48.956;9.200;2023-04-24T13:07:54;168.25;;;160.18;;
11269;SDS011;5692;48.956;9.200;2023-04-24T13:10:20;185.20;;;176.33;;
11269;SDS011;5692;48.956;9.200;2023-04-24T13:12:46;191.90;;;182.70;;
11269;SDS011;5692;48.956;9.200;2023-04-24T13:15:12;175.80;;;167.40;;
11269;SDS011;5692;48.956;9.200;2023-04-24T13:17:38;176.32;;;167.88;;
11269;SDS011;5692;48.956;9.200;2023-04-24T13:20:05;192.85;;;183.60;;
11269;SDS011;5692;48.956;9.200;2023-04-24T13:22:31;194.18;;;184.88;;
11269;SDS011;5692;48.956;9.200;2023-04-24T13:24:57;175.68;;;167.25;;
11269;SDS011;5692;48.956;9.200;2023-04-24T13:27:23;188.60;;;179.57;;
11269;SDS011;5692;48.956;9.200;2023-04-24T13:29:49;181.57;;;172.87;;
11269;SDS011;5692;48.956;9.200;2023-04-24T13:32:16;174.15;;;165.82;;
11269;SDS011;5692;48.956;9.200;2023-04-24T13:34:43;184.40;;;175.57;;
11269;SDS011;5692;48.956;9.200;2023-04-24T13:37:09;180.18;;;171.55;;
11269;SDS011;5692;48.956;9.200;2023-04-24T13:39:35;169.32;;;161.23;;
11269;SDS011;5692;48.956;9.200;2023-04-24T13:42:01;172.57;;;164.27;;
11269;SDS011;5692;48.956;9.200;2023-04-24T13:44:27;177.65;;;169.15;;
11269;SDS011;5692;48.956;9.200;2023-04-24T13:46:53;174.80;;;166.40;;
11269;SDS011;5692;48.956;9.200;2023-04-24T13:49:22;174.45;;;166.10;;
11269;SDS011;5692;48.956;9.200;2023-04-24T13:51:50;177.40;;;168.90;;
11269;SDS011;5692;48.956;9.200;2023-04-24T13:54:16;182.48;;;173.75;;
11269;SDS011;5692;48.956;9.200;2023-04-24T13:56:42;178.40;;;169.85;;
11269;SDS011;5692;48.956;9.200;2023-04-24T13:59:08;179.05;;;170.48;;
11269;SDS011;5692;48.956;9.200;2023-04-24T14:01:34;171.52;;;163.32;;
11269;SDS011;5692;48.956;9.200;2023-04-24T14:04:01;177.02;;;168.52;;
11269;SDS011;5692;48.956;9.200;2023-04-24T14:06:27;170.50;;;162.32;;
11269;SDS011;5692;48.956;9.200;2023-04-24T14:08:53;155.07;;;147.63;;
11269;SDS011;5692;48.956;9.200;2023-04-24T14:11:19;174.53;;;166.17;;
11269;SDS011;5692;48.956;9.200;2023-04-24T14:13:45;173.93;;;165.60;;
11269;SDS011;5692;48.956;9.200;2023-04-24T14:16:11;173.07;;;164.77;;
11269;SDS011;5692;48.956;9.200;2023-04-24T14:18:37;168.37;;;160.27;;
11269;SDS011;5692;48.956;9.200;2023-04-24T14:21:04;165.70;;;157.75;;
11269;SDS011;5692;48.956;9.200;2023-04-24T14:23:30;168.57;;;160.50;;